KGRIKOLU

Guest
Details From KGRI - CENTRAL NEBRASKA RGNL
To KOLU - COLUMBUS MUNI
Flight Number -
Tags generated
Created
Modified
Stats Distance 52 nm / 97 km
Max Altitude 0 ft / 0 m
Waypoints 3
Social Downloads 0
Likes 0
Share VATSIM

Download

Looking for another format? Having issues loading an existing format? Contact us
Advertisement - Login to hide

Notes

Basic altitude profile: - Ascent Rate: 2500ft/min - Ascent Speed: 250kts - Cruise Altitude: 35000ft - Cruise Speed: 420kts - Descent Rate: 1500ft/min - Descent Speed: 250kts Options: - Use NATs: yes - Use PACOTS: no - Use low airways: yes - Use high airways: no

Route

KGRI OLU KOLU

ID Type Via Altitude Latitude Longitude Leg Dist Tot Dist Heading (true) Name
O KGRI APT - 0 ft / 0 m 40.96973˚ -98.30910˚ - 0 nm - CENTRAL NEBRASKA RGNL
OLU VOR - 0 ft / 0 m 41.45003˚ -97.34083˚ 52 nm 52 nm 56° / 57° COLUMBUS VOR-DME
O KOLU APT - 0 ft / 0 m 41.44859˚ -97.34004˚ 0 nm 52 nm 157° / 157° COLUMBUS MUNI

Altitude Profile

Advertisement - Login to hide

KGRI

Details ICAO KGRI (GRI)
Name CENTRAL NEBRASKA RGNL
Region United States
Timezone America/Chicago (UTC-6.0)
Stats Elevation 1,847 ft / 563 m (AMSL)
Location 40.969732° -98.309095°
Runways 2
Magnetic Variation 4.236° E

METAR

KGRI 131453Z 32020G31KT 10SM CLR 09/M05 A2987 RMK AO2 PK WND 33036/1435 SLP126 T00941050 51031

Decode

TAF

TAF AMD KGRI 131247Z 1313/1412 32030G40KT P6SM FEW150 FM131500 32025G36KT P6SM FEW250 FM132200 34018G23KT P6SM SCT250 FM140200 34011KT P6SM SCT040 SCT150 FM140600 31007KT P6SM BKN035

Decode

Departure Runways

ID Width Length Bearing (true) Bearing (mag) Surface Threshold Offset Overrun Length
13 98 ft / 30 m 6,613 ft / 2,016 m 135.39° 131.15° Concrete 0 ft / 0 m 0 ft / 0 m
17 151 ft / 46 m 9,047 ft / 2,758 m 180.30° 176.06° Concrete 997 ft / 304 m 0 ft / 0 m
31 98 ft / 30 m 6,613 ft / 2,016 m 315.41° 311.17° Concrete 0 ft / 0 m 0 ft / 0 m
35 151 ft / 46 m 9,047 ft / 2,758 m 0.30° 356.06° Concrete 1,027 ft / 313 m 0 ft / 0 m

KOLU

Details ICAO KOLU
Name COLUMBUS MUNI
Region United States
Timezone America/Chicago (UTC-6.0)
Stats Elevation 1,444 ft / 440 m (AMSL)
Location 41.448592° -97.340040°
Runways 2
Magnetic Variation 3.556° E

METAR

KOLU 131456Z AUTO 31026G35KT 10SM CLR 09/M03 A2978 RMK AO2 PK WND 30035/1448 SLP094 T00891033 53028

Decode

TAF

Not found

Destination Runways

ID Width Length Bearing (true) Bearing (mag) Surface Threshold Offset Overrun Length
02 151 ft / 46 m 4,040 ft / 1,231 m 29.70° 26.14° Grass 0 ft / 0 m 0 ft / 0 m
14 98 ft / 30 m 6,808 ft / 2,075 m 149.90° 146.34° Concrete 0 ft / 0 m 0 ft / 0 m
20 151 ft / 46 m 4,040 ft / 1,231 m 209.70° 206.14° Grass 0 ft / 0 m 0 ft / 0 m
32 98 ft / 30 m 6,808 ft / 2,075 m 329.90° 326.34° Concrete 951 ft / 290 m 0 ft / 0 m

Approach Navaids

Runway Type Ident Frequency Range Bearing (true) Bearing (mag) Slope Elevation
14 Localiser IOLU 109.10 MHz 18 nm / 33 km 149.92° 146.36° - 1,439 ft / 439 m (AMSL)